createdAt,value
2023-03-02T00:00:17.136Z,0.00
2023-03-02T00:01:17.128Z,0.00
2023-03-02T00:02:17.176Z,0.00
2023-03-02T00:03:17.140Z,0.00
2023-03-02T00:04:17.097Z,0.00
2023-03-02T00:05:17.086Z,0.00
2023-03-02T00:06:17.128Z,0.00
2023-03-02T00:07:17.084Z,0.00
2023-03-02T00:08:22.070Z,0.00
2023-03-02T00:09:17.101Z,0.00
2023-03-02T00:10:17.031Z,0.00
2023-03-02T00:11:17.022Z,0.00
2023-03-02T00:12:17.053Z,0.00
2023-03-02T00:13:17.017Z,0.00
2023-03-02T00:14:17.025Z,0.00
2023-03-02T00:15:16.979Z,0.00
2023-03-02T00:16:17.050Z,0.00
2023-03-02T00:17:16.963Z,0.00
2023-03-02T00:18:17.015Z,0.00
2023-03-02T00:19:21.955Z,0.00
2023-03-02T00:20:16.952Z,0.00
2023-03-02T00:21:16.936Z,0.00
2023-03-02T00:22:16.907Z,0.00
2023-03-02T00:23:16.917Z,0.00
2023-03-02T00:24:16.900Z,0.00
2023-03-02T00:25:16.878Z,0.00
2023-03-02T00:26:16.855Z,0.00
2023-03-02T00:27:16.868Z,0.00
2023-03-02T00:28:16.836Z,0.00
2023-03-02T00:29:16.852Z,0.00
2023-03-02T00:30:21.877Z,0.00
2023-03-02T00:31:16.917Z,0.00
2023-03-02T00:32:16.853Z,0.00
2023-03-02T00:33:16.785Z,0.00
2023-03-02T00:34:16.770Z,0.00
2023-03-02T00:35:16.756Z,0.00
2023-03-02T00:36:16.773Z,0.00
2023-03-02T00:37:16.732Z,0.00
2023-03-02T00:38:16.736Z,0.00
2023-03-02T00:39:16.711Z,0.00
2023-03-02T00:40:16.699Z,0.00
2023-03-02T00:41:21.808Z,0.00
2023-03-02T00:42:16.699Z,0.00
2023-03-02T00:43:16.688Z,0.00
2023-03-02T00:44:16.656Z,0.00
2023-03-02T00:45:16.676Z,0.00
2023-03-02T00:46:16.692Z,0.00
2023-03-02T00:47:16.624Z,0.00
2023-03-02T00:48:16.641Z,0.00
2023-03-02T00:49:16.599Z,0.00
2023-03-02T00:50:16.605Z,0.00
2023-03-02T00:51:16.579Z,0.00
2023-03-02T00:52:21.592Z,0.00
2023-03-02T00:53:16.569Z,0.00
2023-03-02T00:54:16.564Z,0.00
2023-03-02T00:55:16.536Z,0.00
2023-03-02T00:56:16.531Z,0.00
2023-03-02T00:57:16.511Z,0.00
2023-03-02T00:58:16.521Z,0.00
2023-03-02T00:59:16.496Z,0.00
2023-03-02T01:00:16.500Z,0.00
2023-03-02T01:01:18.602Z,0.00
2023-03-02T01:02:16.483Z,0.00
2023-03-02T01:03:21.501Z,0.00
2023-03-02T01:04:16.437Z,0.00
2023-03-02T01:05:16.426Z,0.00
2023-03-02T01:06:16.431Z,0.00
2023-03-02T01:07:16.414Z,0.00
2023-03-02T01:08:16.401Z,0.00
2023-03-02T01:09:16.384Z,0.00
2023-03-02T01:10:16.374Z,0.00
2023-03-02T01:11:16.379Z,0.00
2023-03-02T01:12:16.374Z,0.00
2023-03-02T01:13:16.352Z,0.00
2023-03-02T01:14:21.354Z,0.00
2023-03-02T01:15:16.329Z,0.00
2023-03-02T01:16:16.402Z,0.00
2023-03-02T01:17:16.377Z,0.00
2023-03-02T01:18:16.314Z,0.00
2023-03-02T01:19:16.278Z,0.00
2023-03-02T01:20:16.261Z,0.00
2023-03-02T01:21:16.260Z,0.00
2023-03-02T01:22:16.250Z,0.00
2023-03-02T01:23:16.245Z,0.00
2023-03-02T01:24:16.296Z,0.00
2023-03-02T01:25:21.238Z,0.00
2023-03-02T01:26:16.201Z,0.00
2023-03-02T01:27:16.190Z,0.00
2023-03-02T01:28:16.189Z,0.00
2023-03-02T01:29:16.170Z,0.00
2023-03-02T01:30:16.180Z,0.00
2023-03-02T01:31:16.195Z,0.00
2023-03-02T01:32:16.161Z,0.00
2023-03-02T01:33:16.206Z,0.00
2023-03-02T01:34:16.115Z,0.00
2023-03-02T01:35:16.123Z,0.00
2023-03-02T01:36:21.144Z,0.00
2023-03-02T01:37:16.079Z,0.00
2023-03-02T01:38:16.158Z,0.00
2023-03-02T01:39:16.224Z,0.00
2023-03-02T01:40:16.054Z,0.00
2023-03-02T01:41:16.049Z,0.00
2023-03-02T01:42:16.042Z,0.00
2023-03-02T01:43:16.025Z,0.00
2023-03-02T01:44:16.009Z,0.00
2023-03-02T01:45:15.997Z,0.00
2023-03-02T01:46:15.978Z,0.00
2023-03-02T01:47:20.994Z,0.00
2023-03-02T01:48:15.987Z,0.00
2023-03-02T01:49:15.974Z,0.00
2023-03-02T01:50:15.942Z,0.00
2023-03-02T01:51:16.011Z,0.00
2023-03-02T01:52:15.924Z,0.00
2023-03-02T01:53:15.939Z,0.00
2023-03-02T01:54:15.967Z,0.00
2023-03-02T01:55:15.886Z,0.00
2023-03-02T01:56:15.876Z,0.00
2023-03-02T01:57:15.861Z,0.00
2023-03-02T01:58:20.878Z,0.00
2023-03-02T01:59:15.841Z,0.00
2023-03-02T02:00:15.847Z,0.00
2023-03-02T02:01:15.967Z,0.00
2023-03-02T02:02:15.803Z,0.00
2023-03-02T02:03:15.797Z,0.00
2023-03-02T02:04:15.826Z,0.00
2023-03-02T02:05:15.805Z,0.00
2023-03-02T02:06:15.817Z,0.00
2023-03-02T02:07:15.748Z,0.00
2023-03-02T02:08:15.740Z,0.00
2023-03-02T02:09:20.761Z,0.00
2023-03-02T02:10:15.712Z,0.00
2023-03-02T02:11:15.706Z,0.00
2023-03-02T02:12:15.710Z,0.00
2023-03-02T02:13:15.684Z,0.00
2023-03-02T02:14:15.689Z,0.00
2023-03-02T02:15:15.659Z,0.00
2023-03-02T02:16:15.676Z,0.00
2023-03-02T02:17:15.638Z,0.00
2023-03-02T02:18:15.646Z,0.00
2023-03-02T02:19:15.627Z,0.00
2023-03-02T02:20:20.700Z,0.00
2023-03-02T02:21:15.605Z,0.00
2023-03-02T02:22:15.590Z,0.00
2023-03-02T02:23:15.574Z,0.00
2023-03-02T02:24:15.585Z,0.00
2023-03-02T02:25:15.563Z,0.00
2023-03-02T02:26:15.540Z,0.00
2023-03-02T02:27:15.529Z,0.00
2023-03-02T02:28:15.552Z,0.00
2023-03-02T02:29:15.518Z,0.00
2023-03-02T02:30:15.499Z,0.00
2023-03-02T02:31:20.577Z,0.00
2023-03-02T02:32:15.705Z,0.00
2023-03-02T02:33:15.462Z,0.00
2023-03-02T02:34:15.490Z,0.00
2023-03-02T02:35:15.442Z,0.00
2023-03-02T02:36:15.454Z,0.00
2023-03-02T02:37:15.428Z,0.00
2023-03-02T02:38:15.409Z,0.00
2023-03-02T02:39:15.393Z,0.00
2023-03-02T02:40:15.398Z,0.00
2023-03-02T02:41:15.408Z,0.00
2023-03-02T02:42:20.388Z,0.00
2023-03-02T02:43:15.383Z,0.00
2023-03-02T02:44:15.345Z,0.00
2023-03-02T02:45:15.339Z,0.00
2023-03-02T02:46:15.362Z,0.00
2023-03-02T02:47:15.309Z,0.00
2023-03-02T02:48:15.301Z,0.00
2023-03-02T02:49:15.310Z,0.00
2023-03-02T02:50:15.292Z,0.00
2023-03-02T02:51:15.266Z,0.00
2023-03-02T02:52:15.392Z,0.00
2023-03-02T02:53:20.283Z,0.00
2023-03-02T02:54:15.244Z,0.00
2023-03-02T02:55:15.269Z,0.00
2023-03-02T02:56:15.228Z,0.00
2023-03-02T02:57:15.201Z,0.00
2023-03-02T02:58:15.190Z,0.00
2023-03-02T02:59:15.178Z,0.00
2023-03-02T03:00:15.184Z,0.00
2023-03-02T03:01:15.280Z,0.00
2023-03-02T03:02:15.144Z,0.00
2023-03-02T03:03:15.138Z,0.00
2023-03-02T03:04:20.216Z,0.00
2023-03-02T03:05:15.152Z,0.00
2023-03-02T03:06:15.102Z,0.00
2023-03-02T03:07:15.109Z,0.00
2023-03-02T03:08:15.101Z,0.00
2023-03-02T03:09:15.081Z,0.00
2023-03-02T03:10:15.070Z,0.00
2023-03-02T03:11:15.046Z,0.00
2023-03-02T03:12:15.038Z,0.00
2023-03-02T03:13:15.063Z,0.00
2023-03-02T03:14:15.017Z,0.00
2023-03-02T03:15:20.057Z,0.00
2023-03-02T03:16:15.106Z,0.00
2023-03-02T03:17:14.994Z,0.00
2023-03-02T03:18:14.968Z,0.00
2023-03-02T03:19:14.980Z,0.00
2023-03-02T03:20:14.956Z,0.00
2023-03-02T03:21:14.943Z,0.00
2023-03-02T03:22:14.933Z,0.00
2023-03-02T03:23:14.915Z,0.00
2023-03-02T03:24:14.920Z,0.00
2023-03-02T03:25:14.909Z,0.00
2023-03-02T03:26:19.909Z,0.00
2023-03-02T03:27:14.867Z,0.00
2023-03-02T03:28:14.857Z,0.00
2023-03-02T03:29:14.844Z,0.00
2023-03-02T03:30:14.847Z,0.00
2023-03-02T03:31:14.906Z,0.00
2023-03-02T03:32:14.868Z,0.00
2023-03-02T03:33:14.802Z,0.00
2023-03-02T03:34:14.794Z,0.00
2023-03-02T03:35:14.781Z,0.00
2023-03-02T03:36:14.781Z,0.00
2023-03-02T03:37:19.818Z,0.00
2023-03-02T03:38:14.741Z,0.00
2023-03-02T03:39:14.737Z,0.00
2023-03-02T03:40:14.815Z,0.00
2023-03-02T03:41:14.738Z,0.00
2023-03-02T03:42:14.699Z,0.00
2023-03-02T03:43:14.711Z,0.00
2023-03-02T03:44:14.676Z,0.00
2023-03-02T03:45:14.670Z,0.00
2023-03-02T03:46:14.698Z,0.00
2023-03-02T03:47:14.648Z,0.00
2023-03-02T03:48:19.654Z,0.00
2023-03-02T03:49:14.646Z,0.00
2023-03-02T03:50:14.613Z,0.00
2023-03-02T03:51:14.613Z,0.00
2023-03-02T03:52:14.588Z,0.00
2023-03-02T03:53:14.586Z,0.00
2023-03-02T03:54:14.568Z,0.00
2023-03-02T03:55:14.585Z,0.00
2023-03-02T03:56:14.587Z,0.00
2023-03-02T03:57:14.537Z,0.00
2023-03-02T03:58:14.557Z,0.00
2023-03-02T03:59:19.536Z,0.00
2023-03-02T04:00:14.500Z,0.00
2023-03-02T04:01:14.541Z,0.00
2023-03-02T04:02:14.495Z,0.00
2023-03-02T04:03:14.469Z,0.00
2023-03-02T04:04:14.458Z,0.00
2023-03-02T04:05:14.443Z,0.00
2023-03-02T04:06:14.467Z,0.00
2023-03-02T04:07:14.487Z,0.00
2023-03-02T04:08:14.481Z,0.00
2023-03-02T04:09:14.450Z,0.00
2023-03-02T04:10:19.415Z,0.00
2023-03-02T04:11:14.404Z,0.00
2023-03-02T04:12:14.392Z,0.00
2023-03-02T04:13:14.384Z,0.00
2023-03-02T04:14:14.369Z,0.00
2023-03-02T04:15:14.338Z,0.00
2023-03-02T04:16:14.379Z,0.00
2023-03-02T04:17:14.317Z,0.00
2023-03-02T04:18:14.301Z,0.00
2023-03-02T04:19:14.291Z,0.00
2023-03-02T04:20:14.302Z,0.00
2023-03-02T04:21:19.310Z,0.00
2023-03-02T04:22:14.256Z,0.00
2023-03-02T04:23:14.246Z,0.00
2023-03-02T04:24:14.253Z,0.00
2023-03-02T04:25:14.228Z,0.00
2023-03-02T04:26:14.242Z,0.00
2023-03-02T04:27:14.248Z,0.00
2023-03-02T04:28:16.515Z,0.00
2023-03-02T04:29:14.191Z,0.00
2023-03-02T04:30:14.177Z,0.00
2023-03-02T04:31:14.241Z,0.00
2023-03-02T04:32:19.279Z,0.00
2023-03-02T04:33:14.181Z,0.00
2023-03-02T04:34:14.133Z,0.00
2023-03-02T04:35:14.124Z,0.00
2023-03-02T04:36:14.130Z,0.00
2023-03-02T04:37:14.105Z,0.00
2023-03-02T04:38:14.097Z,0.00
2023-03-02T04:39:14.092Z,0.00
2023-03-02T04:40:14.077Z,0.00
2023-03-02T04:41:14.131Z,0.00
2023-03-02T04:42:14.152Z,0.00
2023-03-02T04:43:19.084Z,0.00
2023-03-02T04:44:14.050Z,0.00
2023-03-02T04:45:14.038Z,0.00
2023-03-02T04:46:14.034Z,0.00
2023-03-02T04:47:14.000Z,0.00
2023-03-02T04:48:13.992Z,0.00
2023-03-02T04:49:13.980Z,0.00
2023-03-02T04:50:13.974Z,0.00
2023-03-02T04:51:14.005Z,0.00
2023-03-02T04:52:13.952Z,0.00
2023-03-02T04:53:13.934Z,0.00
2023-03-02T04:54:18.954Z,0.00
2023-03-02T04:55:13.918Z,0.00
2023-03-02T04:56:13.911Z,0.00
2023-03-02T04:57:13.919Z,0.00
2023-03-02T04:58:13.882Z,0.00
2023-03-02T04:59:13.888Z,0.00
2023-03-02T05:00:13.867Z,0.00
2023-03-02T05:01:13.863Z,0.00
2023-03-02T05:02:13.988Z,0.00
2023-03-02T05:03:13.848Z,0.00
2023-03-02T05:04:13.835Z,0.00
2023-03-02T05:05:18.837Z,0.00
2023-03-02T05:06:13.803Z,0.00
2023-03-02T05:07:13.784Z,0.00
2023-03-02T05:08:13.771Z,0.00
2023-03-02T05:09:13.786Z,0.00
2023-03-02T05:10:13.745Z,0.00
2023-03-02T05:11:13.756Z,0.00
2023-03-02T05:12:13.726Z,0.00
2023-03-02T05:13:13.718Z,0.00
2023-03-02T05:14:13.710Z,0.00
2023-03-02T05:15:13.733Z,0.00
2023-03-02T05:16:18.785Z,0.00
2023-03-02T05:17:13.681Z,0.00
2023-03-02T05:18:13.666Z,0.00
2023-03-02T05:19:13.649Z,0.00
2023-03-02T05:20:13.636Z,0.00
2023-03-02T05:21:13.646Z,0.00
2023-03-02T05:22:13.624Z,0.00
2023-03-02T05:23:13.621Z,0.00
2023-03-02T05:24:13.619Z,0.00
2023-03-02T05:25:13.582Z,0.00
2023-03-02T05:26:13.575Z,0.00
2023-03-02T05:27:18.626Z,0.00
2023-03-02T05:28:13.548Z,0.00
2023-03-02T05:29:13.545Z,0.00
2023-03-02T05:30:13.529Z,0.00
2023-03-02T05:31:13.623Z,0.00
2023-03-02T05:32:13.593Z,0.00
2023-03-02T05:33:13.538Z,0.00
2023-03-02T05:34:13.483Z,0.00
2023-03-02T05:35:14.254Z,0.00
2023-03-02T05:36:13.468Z,0.00
2023-03-02T05:37:13.461Z,0.00
2023-03-02T05:38:18.460Z,0.00
2023-03-02T05:39:13.468Z,0.00
2023-03-02T05:40:13.419Z,4.00
2023-03-02T05:41:13.406Z,0.00
2023-03-02T05:42:13.403Z,0.00
2023-03-02T05:43:13.383Z,4.00
2023-03-02T05:44:13.373Z,4.00
2023-03-02T05:45:13.387Z,4.00
2023-03-02T05:46:13.357Z,4.00
2023-03-02T05:47:13.451Z,8.00
2023-03-02T05:48:13.330Z,8.00
2023-03-02T05:49:18.346Z,8.00
2023-03-02T05:50:13.318Z,8.00
2023-03-02T05:51:13.340Z,12.00
2023-03-02T05:52:13.300Z,12.00
2023-03-02T05:53:13.288Z,20.00
2023-03-02T05:54:13.264Z,20.00
2023-03-02T05:55:13.271Z,20.00
2023-03-02T05:56:13.239Z,28.00
2023-03-02T05:57:13.272Z,32.00
2023-03-02T05:58:13.219Z,40.00
2023-03-02T05:59:13.208Z,44.00
2023-03-02T06:00:18.237Z,48.00
2023-03-02T06:01:15.387Z,52.00
2023-03-02T06:02:13.228Z,60.00
2023-03-02T06:03:13.293Z,72.00
2023-03-02T06:04:13.165Z,80.00
2023-03-02T06:05:13.140Z,88.00
2023-03-02T06:06:13.130Z,96.00
2023-03-02T06:07:13.126Z,108.00
2023-03-02T06:08:13.113Z,120.00
2023-03-02T06:09:13.121Z,132.00
2023-03-02T06:10:13.082Z,144.00
2023-03-02T06:11:18.102Z,160.00
2023-03-02T06:12:13.074Z,172.00
2023-03-02T06:13:13.051Z,188.00
2023-03-02T06:14:13.040Z,204.00
2023-03-02T06:15:13.051Z,220.00
2023-03-02T06:16:13.094Z,236.00
2023-03-02T06:17:13.041Z,256.00
2023-03-02T06:18:12.998Z,272.00
2023-03-02T06:19:13.110Z,292.00
2023-03-02T06:20:12.995Z,312.00
2023-03-02T06:21:12.988Z,332.00
2023-03-02T06:22:17.985Z,356.00
2023-03-02T06:23:12.945Z,376.00
2023-03-02T06:24:12.933Z,400.00
2023-03-02T06:25:12.921Z,424.00
2023-03-02T06:26:12.938Z,444.00
2023-03-02T06:27:12.934Z,472.00
2023-03-02T06:28:12.893Z,492.00
2023-03-02T06:29:13.353Z,516.00
2023-03-02T06:30:12.871Z,544.00
2023-03-02T06:31:12.854Z,572.00
2023-03-02T06:32:13.004Z,596.00
2023-03-02T06:33:17.881Z,624.00
2023-03-02T06:34:12.821Z,652.00
2023-03-02T06:35:12.896Z,676.00
2023-03-02T06:36:12.968Z,704.00
2023-03-02T06:37:12.813Z,732.00
2023-03-02T06:38:12.777Z,760.00
2023-03-02T06:39:12.783Z,784.00
2023-03-02T06:40:12.755Z,816.00
2023-03-02T06:41:12.751Z,844.00
2023-03-02T06:42:12.750Z,876.00
2023-03-02T06:43:12.723Z,900.00
2023-03-02T06:44:17.745Z,932.00
2023-03-02T06:45:12.754Z,960.00
2023-03-02T06:46:12.798Z,988.00
2023-03-02T06:47:12.682Z,1020.00
2023-03-02T06:48:12.678Z,1044.00
2023-03-02T06:49:14.190Z,1068.00
2023-03-02T06:50:12.654Z,1100.00
2023-03-02T06:51:12.735Z,1124.00
2023-03-02T06:52:12.629Z,1156.00
2023-03-02T06:53:12.623Z,1184.00
2023-03-02T06:54:12.605Z,1212.00
2023-03-02T06:55:17.618Z,1240.00
2023-03-02T06:56:12.583Z,1272.00
2023-03-02T06:57:12.593Z,1300.00
2023-03-02T06:58:12.574Z,1332.00
2023-03-02T06:59:12.548Z,1356.00
2023-03-02T07:00:12.538Z,1380.00
2023-03-02T07:01:12.592Z,1400.00
2023-03-02T07:02:12.536Z,1424.00
2023-03-02T07:03:12.543Z,1448.00
2023-03-02T07:04:12.495Z,1476.00
2023-03-02T07:05:12.497Z,1508.00
2023-03-02T07:06:17.516Z,1536.00
2023-03-02T07:07:12.461Z,1564.00
2023-03-02T07:08:12.456Z,1596.00
2023-03-02T07:09:12.466Z,1616.00
2023-03-02T07:10:12.433Z,1644.00
2023-03-02T07:11:12.414Z,1668.00
2023-03-02T07:12:12.406Z,1696.00
2023-03-02T07:13:12.407Z,1720.00
2023-03-02T07:14:12.386Z,1752.00
2023-03-02T07:15:12.488Z,1780.00
2023-03-02T07:16:12.366Z,1808.00
2023-03-02T07:17:17.379Z,1824.00
2023-03-02T07:18:12.351Z,1848.00
2023-03-02T07:19:12.328Z,1876.00
2023-03-02T07:20:12.320Z,1908.00
2023-03-02T07:21:12.331Z,1932.00
2023-03-02T07:22:12.316Z,1956.00
2023-03-02T07:23:12.356Z,1984.00
2023-03-02T07:24:12.273Z,2012.00
2023-03-02T07:25:12.276Z,2036.00
2023-03-02T07:26:12.248Z,2060.00
2023-03-02T07:27:12.256Z,2084.00
2023-03-02T07:28:17.264Z,2104.00
2023-03-02T07:29:12.226Z,2124.00
2023-03-02T07:30:12.219Z,2144.00
2023-03-02T07:31:12.262Z,2168.00
2023-03-02T07:32:12.724Z,2200.00
2023-03-02T07:33:12.212Z,2216.00
2023-03-02T07:34:12.169Z,2244.00
2023-03-02T07:35:12.166Z,2264.00
2023-03-02T07:36:12.158Z,2296.00
2023-03-02T07:37:12.127Z,2320.00
2023-03-02T07:38:12.181Z,2344.00
2023-03-02T07:39:17.158Z,2360.00
2023-03-02T07:40:12.110Z,2388.00
2023-03-02T07:41:12.086Z,2412.00
2023-03-02T07:42:12.073Z,2440.00
2023-03-02T07:43:12.074Z,2464.00
2023-03-02T07:44:12.054Z,2456.00
2023-03-02T07:45:12.067Z,2480.00
2023-03-02T07:46:12.082Z,2508.00
2023-03-02T07:47:12.029Z,2536.00
2023-03-02T07:48:12.021Z,2556.00
2023-03-02T07:49:11.998Z,2580.00
2023-03-02T07:50:17.026Z,2604.00
2023-03-02T07:51:11.987Z,2624.00
2023-03-02T07:52:11.968Z,2644.00
2023-03-02T07:53:11.963Z,2664.00
2023-03-02T07:54:11.989Z,2684.00
2023-03-02T07:55:11.947Z,2704.00
2023-03-02T07:56:11.936Z,2728.00
2023-03-02T07:57:11.926Z,2740.00
2023-03-02T07:58:11.909Z,2768.00
2023-03-02T07:59:11.900Z,2792.00
2023-03-02T08:00:11.893Z,2820.00
2023-03-02T08:01:16.892Z,2844.00
2023-03-02T08:02:11.890Z,2868.00
2023-03-02T08:03:11.958Z,2900.00
2023-03-02T08:04:11.835Z,2920.00
2023-03-02T08:05:11.826Z,2940.00
2023-03-02T08:06:11.838Z,2964.00
2023-03-02T08:07:11.803Z,2996.00
2023-03-02T08:08:11.798Z,3028.00
2023-03-02T08:09:11.802Z,3052.00
2023-03-02T08:10:11.784Z,3072.00
2023-03-02T08:11:11.760Z,3092.00
2023-03-02T08:12:16.774Z,3132.00
2023-03-02T08:13:11.751Z,3160.00
2023-03-02T08:14:11.726Z,3184.00
2023-03-02T08:15:11.744Z,3200.00
2023-03-02T08:16:11.722Z,3204.00
2023-03-02T08:17:11.696Z,3228.00
2023-03-02T08:18:11.683Z,3240.00
2023-03-02T08:19:11.678Z,3260.00
2023-03-02T08:20:11.667Z,3312.00
2023-03-02T08:21:11.679Z,3360.00
2023-03-02T08:22:11.636Z,3432.00
2023-03-02T08:23:16.647Z,3544.00
2023-03-02T08:24:11.627Z,3728.00
2023-03-02T08:25:11.627Z,3988.00
2023-03-02T08:26:13.832Z,4276.00
2023-03-02T08:27:11.603Z,4644.00
2023-03-02T08:28:11.567Z,5248.00
2023-03-02T08:29:11.568Z,5972.00
2023-03-02T08:30:11.545Z,6636.00
2023-03-02T08:31:11.594Z,7072.00
2023-03-02T08:32:11.763Z,7356.00
2023-03-02T08:33:11.531Z,7812.00
2023-03-02T08:34:16.540Z,7840.00
2023-03-02T08:35:11.491Z,8000.00
2023-03-02T08:36:11.553Z,8260.00
2023-03-02T08:37:11.468Z,8428.00
2023-03-02T08:38:11.461Z,8544.00
2023-03-02T08:39:11.501Z,8544.00
2023-03-02T08:40:11.439Z,8428.00
2023-03-02T08:41:11.428Z,8444.00
2023-03-02T08:42:11.448Z,8448.00
2023-03-02T08:43:11.408Z,8372.00
2023-03-02T08:44:11.398Z,8176.00
2023-03-02T08:45:16.443Z,7944.00
2023-03-02T08:46:11.464Z,7568.00
2023-03-02T08:47:11.364Z,7036.00
2023-03-02T08:48:11.350Z,6216.00
2023-03-02T08:49:11.339Z,5220.00
2023-03-02T08:50:11.325Z,4880.00
2023-03-02T08:51:11.328Z,5112.00
2023-03-02T08:52:11.299Z,5564.00
2023-03-02T08:53:11.284Z,6276.00
2023-03-02T08:54:11.292Z,7184.00
2023-03-02T08:55:11.301Z,7624.00
2023-03-02T08:56:16.276Z,7968.00
2023-03-02T08:57:11.267Z,8308.00
2023-03-02T08:58:11.255Z,8440.00
2023-03-02T08:59:11.243Z,8548.00
2023-03-02T09:00:11.206Z,8580.00
2023-03-02T09:01:11.247Z,8508.00
2023-03-02T09:02:11.187Z,8288.00
2023-03-02T09:03:11.196Z,7980.00
2023-03-02T09:04:11.253Z,7912.00
2023-03-02T09:05:11.212Z,7756.00
2023-03-02T09:06:11.138Z,7452.00
2023-03-02T09:07:16.606Z,6776.00
2023-03-02T09:08:11.127Z,6532.00
2023-03-02T09:09:11.183Z,6500.00
2023-03-02T09:10:11.099Z,6588.00
2023-03-02T09:11:11.088Z,6264.00
2023-03-02T09:12:11.079Z,5732.00
2023-03-02T09:13:11.063Z,5428.00
2023-03-02T09:14:11.247Z,5288.00
2023-03-02T09:15:11.047Z,5204.00
2023-03-02T09:16:11.041Z,4904.00
2023-03-02T09:17:11.015Z,4804.00
2023-03-02T09:18:16.038Z,4876.00
2023-03-02T09:19:11.004Z,5108.00
2023-03-02T09:20:10.992Z,5368.00
2023-03-02T09:21:11.016Z,5908.00
2023-03-02T09:22:10.961Z,7012.00
2023-03-02T09:23:10.951Z,7788.00
2023-03-02T09:24:10.964Z,8356.00
2023-03-02T09:25:10.932Z,8444.00
2023-03-02T09:26:10.921Z,8080.00
2023-03-02T09:27:10.931Z,8124.00
2023-03-02T09:28:10.898Z,8932.00
2023-03-02T09:29:15.964Z,9232.00
2023-03-02T09:30:10.877Z,9372.00
2023-03-02T09:31:10.862Z,9328.00
2023-03-02T09:32:11.241Z,9336.00
2023-03-02T09:33:10.912Z,9316.00
2023-03-02T09:34:10.865Z,9588.00
2023-03-02T09:35:10.824Z,9320.00
2023-03-02T09:36:10.815Z,8840.00
2023-03-02T09:37:10.801Z,8328.00
2023-03-02T09:38:10.856Z,8060.00
2023-03-02T09:39:10.869Z,7672.00
2023-03-02T09:40:15.812Z,7672.00
2023-03-02T09:41:10.751Z,7824.00
2023-03-02T09:42:10.753Z,8212.00
2023-03-02T09:43:10.728Z,8564.00
2023-03-02T09:44:10.722Z,8420.00
2023-03-02T09:45:10.755Z,8156.00
2023-03-02T09:46:10.768Z,7788.00
2023-03-02T09:47:10.696Z,7732.00
2023-03-02T09:48:10.684Z,8120.00
2023-03-02T09:49:10.667Z,7584.00
2023-03-02T09:50:10.677Z,7468.00
2023-03-02T09:51:15.687Z,7604.00
2023-03-02T09:52:10.701Z,7780.00
2023-03-02T09:53:10.623Z,7532.00
2023-03-02T09:54:10.644Z,8000.00
2023-03-02T09:55:10.627Z,8416.00
2023-03-02T09:56:10.584Z,8952.00
2023-03-02T09:57:10.613Z,8244.00
2023-03-02T09:58:10.570Z,8396.00
2023-03-02T09:59:10.549Z,9120.00
2023-03-02T10:00:19.191Z,9748.00
2023-03-02T10:01:10.549Z,10052.00
2023-03-02T10:02:15.546Z,8660.00
2023-03-02T10:03:16.985Z,8072.00
2023-03-02T10:04:10.605Z,9092.00
2023-03-02T10:05:10.486Z,9960.00
2023-03-02T10:06:10.477Z,9520.00
2023-03-02T10:07:10.458Z,9084.00
2023-03-02T10:08:10.458Z,9496.00
2023-03-02T10:09:10.448Z,9116.00
2023-03-02T10:10:10.435Z,9004.00
2023-03-02T10:11:10.415Z,9088.00
2023-03-02T10:12:10.429Z,9756.00
2023-03-02T10:13:15.414Z,9932.00
2023-03-02T10:14:10.383Z,9316.00
2023-03-02T10:15:10.399Z,7912.00
2023-03-02T10:16:10.533Z,7244.00
2023-03-02T10:17:10.372Z,7912.00
2023-03-02T10:18:10.351Z,8152.00
2023-03-02T10:19:10.325Z,7624.00
2023-03-02T10:20:10.332Z,6980.00
2023-03-02T10:21:10.318Z,6036.00
2023-03-02T10:22:10.292Z,6768.00
2023-03-02T10:23:10.278Z,7704.00
2023-03-02T10:24:15.294Z,8028.00
2023-03-02T10:25:10.264Z,8076.00
2023-03-02T10:26:10.252Z,9360.00
2023-03-02T10:27:10.262Z,9796.00
2023-03-02T10:28:10.223Z,10084.00
2023-03-02T10:29:10.213Z,9316.00
2023-03-02T10:30:10.224Z,8512.00
2023-03-02T10:31:10.290Z,8468.00
2023-03-02T10:32:10.238Z,7444.00
2023-03-02T10:33:10.196Z,5920.00
2023-03-02T10:34:10.160Z,5628.00
2023-03-02T10:35:15.180Z,5544.00
2023-03-02T10:36:10.135Z,5616.00
2023-03-02T10:37:10.132Z,6424.00
2023-03-02T10:38:10.115Z,9540.00
2023-03-02T10:39:10.164Z,12012.00
2023-03-02T10:40:10.093Z,12160.00
2023-03-02T10:41:10.083Z,12948.00
2023-03-02T10:42:10.108Z,13848.00
2023-03-02T10:43:10.057Z,15488.00
2023-03-02T10:44:10.044Z,16512.00
2023-03-02T10:45:10.048Z,20608.00
2023-03-02T10:46:15.084Z,26400.00
2023-03-02T10:47:10.008Z,29536.00
2023-03-02T10:48:10.007Z,33120.00
2023-03-02T10:49:10.019Z,36000.00
2023-03-02T10:50:09.986Z,35040.00
2023-03-02T10:51:10.003Z,36704.00
2023-03-02T10:52:09.954Z,38144.00
2023-03-02T10:53:09.945Z,36384.00
2023-03-02T10:54:09.935Z,33440.00
2023-03-02T10:55:09.917Z,26240.00
2023-03-02T10:56:09.922Z,18144.00
2023-03-02T10:57:14.982Z,14264.00
2023-03-02T10:58:09.899Z,26336.00
2023-03-02T10:59:09.873Z,28160.00
2023-03-02T11:00:09.862Z,27936.00
2023-03-02T11:01:09.915Z,23296.00
2023-03-02T11:02:09.847Z,20352.00
2023-03-02T11:03:09.839Z,13100.00
2023-03-02T11:04:09.875Z,13136.00
2023-03-02T11:05:09.833Z,19232.00
2023-03-02T11:06:09.804Z,11252.00
2023-03-02T11:07:09.786Z,7352.00
2023-03-02T11:08:14.791Z,9736.00
2023-03-02T11:09:09.779Z,13900.00
2023-03-02T11:10:09.748Z,13440.00
2023-03-02T11:11:09.749Z,20800.00
2023-03-02T11:12:09.798Z,28736.00
2023-03-02T11:13:09.719Z,29472.00
2023-03-02T11:14:09.702Z,32352.00
2023-03-02T11:15:09.714Z,43104.00
2023-03-02T11:16:09.742Z,28448.00
2023-03-02T11:17:09.675Z,21952.00
2023-03-02T11:18:09.656Z,26496.00
2023-03-02T11:19:14.667Z,32032.00
2023-03-02T11:20:09.642Z,27872.00
2023-03-02T11:21:09.665Z,31264.00
2023-03-02T11:22:09.612Z,28640.00
2023-03-02T11:23:09.605Z,20992.00
2023-03-02T11:24:10.515Z,20000.00
2023-03-02T11:25:09.576Z,23936.00
2023-03-02T11:26:09.572Z,31680.00
2023-03-02T11:27:09.567Z,30688.00
2023-03-02T11:28:09.548Z,16480.00
2023-03-02T11:29:09.531Z,8484.00
2023-03-02T11:30:14.541Z,7432.00
2023-03-02T11:31:09.573Z,7084.00
2023-03-02T11:32:09.553Z,11508.00
2023-03-02T11:33:09.549Z,19232.00
2023-03-02T11:34:17.323Z,18528.00
2023-03-02T11:35:09.478Z,10980.00
2023-03-02T11:36:09.450Z,6248.00
2023-03-02T11:37:09.475Z,5908.00
2023-03-02T11:38:09.451Z,5732.00
2023-03-02T11:39:09.423Z,6904.00
2023-03-02T11:40:09.427Z,10704.00
2023-03-02T11:41:14.417Z,9780.00
2023-03-02T11:42:09.435Z,6848.00
2023-03-02T11:43:09.376Z,5796.00
2023-03-02T11:44:09.362Z,8092.00
2023-03-02T11:45:09.350Z,35008.00
2023-03-02T11:46:21.154Z,53408.00
2023-03-02T11:47:09.463Z,57376.00
2023-03-02T11:48:09.347Z,57824.00
2023-03-02T11:49:09.305Z,56256.00
2023-03-02T11:50:09.297Z,56384.00
2023-03-02T11:51:09.285Z,53472.00
2023-03-02T11:52:16.031Z,49504.00
2023-03-02T11:53:09.288Z,46752.00
2023-03-02T11:54:09.267Z,39424.00
2023-03-02T11:55:09.239Z,31808.00
2023-03-02T11:56:09.228Z,31104.00
2023-03-02T11:57:09.232Z,30304.00
2023-03-02T11:58:09.212Z,21088.00
2023-03-02T11:59:09.216Z,13168.00
2023-03-02T12:00:09.192Z,15956.00
2023-03-02T12:01:09.206Z,17120.00
2023-03-02T12:02:09.210Z,15552.00
2023-03-02T12:03:14.172Z,13392.00
2023-03-02T12:04:09.136Z,14096.00
2023-03-02T12:05:09.201Z,16736.00
2023-03-02T12:06:09.117Z,19744.00
2023-03-02T12:07:09.133Z,20864.00
2023-03-02T12:08:09.118Z,34208.00
2023-03-02T12:09:09.178Z,35936.00
2023-03-02T12:10:09.072Z,28064.00
2023-03-02T12:11:09.104Z,30272.00
2023-03-02T12:12:09.053Z,25152.00
2023-03-02T12:13:09.051Z,21184.00
2023-03-02T12:14:14.050Z,21568.00
2023-03-02T12:15:09.022Z,31616.00
2023-03-02T12:16:09.094Z,31712.00
2023-03-02T12:17:09.045Z,26240.00
2023-03-02T12:18:09.000Z,26976.00
2023-03-02T12:19:08.981Z,16928.00
2023-03-02T12:20:08.961Z,10920.00
2023-03-02T12:21:08.973Z,12556.00
2023-03-02T12:22:08.965Z,15296.00
2023-03-02T12:23:08.985Z,16160.00
2023-03-02T12:24:08.938Z,17984.00
2023-03-02T12:25:13.931Z,15196.00
2023-03-02T12:26:08.926Z,26624.00
2023-03-02T12:27:08.888Z,34496.00
2023-03-02T12:28:08.881Z,31424.00
2023-03-02T12:29:08.887Z,18336.00
2023-03-02T12:30:08.880Z,9116.00
2023-03-02T12:31:08.912Z,8508.00
2023-03-02T12:32:08.989Z,8468.00
2023-03-02T12:33:08.840Z,22240.00
2023-03-02T12:34:08.847Z,32544.00
2023-03-02T12:35:08.829Z,30240.00
2023-03-02T12:36:13.805Z,28032.00